Time;durP1;ratioP1;P1;durP2;ratioP2;P2;SDS_P1;SDS_P2;PMS_P1;PMS_P2;Temp;Humidity;BMP_temperature;BMP_pressure;BME280_temperature;BME280_humidity;BME280_pressure;Samples;Min_cycle;Max_cycle;Signal;HPM_P1;HPM_P2
2023/04/18 00:01:20;;;;;;;13.90;7.90;;;8.80;99.90;;;;;;5013970;28;20033;-58
2023/04/18 00:03:46;;;;;;;13.57;7.38;;;8.80;99.90;;;;;;5012636;28;20080;-58
2023/04/18 00:06:12;;;;;;;12.18;7.38;;;8.70;99.90;;;;;;5013402;28;20117;-51
2023/04/18 00:08:38;;;;;;;13.88;7.55;;;8.70;99.90;;;;;;5013919;28;20589;-57
2023/04/18 00:11:04;;;;;;;12.18;7.40;;;8.60;99.90;;;;;;5013569;28;20053;-54
2023/04/18 00:13:30;;;;;;;10.25;7.18;;;8.60;99.90;;;;;;5013642;28;20038;-52
2023/04/18 00:15:56;;;;;;;15.25;8.07;;;8.60;99.90;;;;;;5013786;28;20052;-57
2023/04/18 00:18:25;;;;;;;12.93;7.47;;;8.50;99.90;;;;;;5013532;28;20041;-56
2023/04/18 00:20:51;;;;;;;12.40;7.50;;;8.50;99.90;;;;;;5013254;28;20045;-55
2023/04/18 00:23:17;;;;;;;12.65;7.72;;;8.50;99.90;;;;;;5013597;28;20481;-54
2023/04/18 00:25:43;;;;;;;14.40;7.25;;;8.50;99.90;;;;;;5013250;28;20095;-52
2023/04/18 00:28:09;;;;;;;13.68;7.57;;;8.40;99.90;;;;;;5013681;28;20091;-54
2023/04/18 00:30:34;;;;;;;13.52;7.78;;;8.40;99.90;;;;;;5013323;28;20046;-57
2023/04/18 00:33:00;;;;;;;11.70;6.78;;;8.30;99.90;;;;;;5013482;28;20034;-58
2023/04/18 00:35:26;;;;;;;12.13;7.50;;;8.30;99.90;;;;;;5013145;28;20069;-55
2023/04/18 00:37:51;;;;;;;14.80;6.82;;;8.30;99.90;;;;;;5013686;28;20810;-56
2023/04/18 00:40:17;;;;;;;11.20;7.32;;;8.30;99.90;;;;;;5026529;28;20434;-53
2023/04/18 00:42:43;;;;;;;13.05;7.15;;;8.30;99.90;;;;;;5013199;28;20054;-48
2023/04/18 00:45:09;;;;;;;14.57;7.97;;;8.20;99.90;;;;;;5012915;28;20038;-60
2023/04/18 00:47:35;;;;;;;12.68;7.57;;;8.20;99.90;;;;;;5011607;28;20034;-52
2023/04/18 00:50:01;;;;;;;13.18;7.47;;;8.10;99.90;;;;;;5012692;28;20045;-59
2023/04/18 00:52:27;;;;;;;13.00;7.88;;;8.10;99.90;;;;;;5012658;28;20401;-51
2023/04/18 00:54:54;;;;;;;14.90;7.53;;;8.10;99.90;;;;;;5012714;28;20057;-57
2023/04/18 00:57:21;;;;;;;16.23;7.70;;;8.00;99.90;;;;;;5012433;28;20053;-56
2023/04/18 00:59:47;;;;;;;13.48;7.38;;;8.00;99.90;;;;;;5011293;28;20056;-56
2023/04/18 01:02:12;;;;;;;13.40;7.45;;;8.00;99.90;;;;;;5012648;28;20098;-51
2023/04/18 01:04:39;;;;;;;15.35;7.63;;;8.00;99.90;;;;;;5011683;28;20128;-55
2023/04/18 01:07:05;;;;;;;13.35;7.70;;;7.90;99.90;;;;;;5011600;28;20042;-61
2023/04/18 01:09:31;;;;;;;14.98;7.70;;;7.90;99.90;;;;;;5011553;28;20045;-58
2023/04/18 01:11:56;;;;;;;18.38;7.82;;;7.80;99.90;;;;;;5012601;28;20485;-53
2023/04/18 01:14:22;;;;;;;13.48;8.07;;;7.80;99.90;;;;;;4992004;28;20042;-52
2023/04/18 01:16:48;;;;;;;12.48;7.85;;;7.70;99.90;;;;;;5012257;28;20362;-55
2023/04/18 01:19:16;;;;;;;15.40;7.95;;;7.70;99.90;;;;;;5011033;28;20117;-58
2023/04/18 01:21:42;;;;;;;13.00;7.75;;;7.60;99.90;;;;;;5011108;28;20045;-55
2023/04/18 01:24:13;;;;;;;15.40;8.55;;;7.60;99.90;;;;;;5009590;28;20117;-54
2023/04/18 01:26:40;;;;;;;13.27;8.15;;;7.50;99.90;;;;;;5012226;28;20042;-55
2023/04/18 01:29:06;;;;;;;16.48;7.90;;;7.70;99.90;;;;;;5010880;28;20046;-53
2023/04/18 01:31:36;;;;;;;14.68;7.97;;;7.40;99.90;;;;;;5011412;28;20049;-56
2023/04/18 01:34:02;;;;;;;13.98;8.25;;;7.40;99.90;;;;;;5010199;28;20034;-52
2023/04/18 01:36:28;;;;;;;14.27;7.82;;;7.30;99.90;;;;;;5010898;28;20049;-59
2023/04/18 01:38:54;;;;;;;14.18;7.72;;;7.50;99.90;;;;;;4993585;28;20038;-55
2023/04/18 01:41:20;;;;;;;12.88;7.82;;;7.20;99.90;;;;;;5011712;28;20077;-55
2023/04/18 01:43:45;;;;;;;12.80;7.95;;;7.20;99.90;;;;;;5009576;28;20123;-52
2023/04/18 01:46:11;;;;;;;13.98;8.20;;;7.10;99.90;;;;;;5011160;28;20532;-54
2023/04/18 01:48:37;;;;;;;11.85;8.18;;;7.10;99.90;;;;;;5010361;28;20493;-58
2023/04/18 01:51:03;;;;;;;14.68;8.20;;;7.10;99.90;;;;;;5010720;28;20022;-58
2023/04/18 01:53:28;;;;;;;15.25;7.97;;;7.10;99.90;;;;;;5010469;28;20041;-55
2023/04/18 01:55:54;;;;;;;16.65;7.57;;;7.20;99.90;;;;;;5010726;28;20088;-53
2023/04/18 01:58:22;;;;;;;15.82;7.78;;;7.00;99.90;;;;;;5007529;28;20050;-58
2023/04/18 02:00:52;;;;;;;17.40;8.38;;;6.90;99.90;;;;;;5012225;28;20545;-51
2023/04/18 02:03:18;;;;;;;18.77;9.18;;;7.00;99.90;;;;;;5010271;28;20058;-50
2023/04/18 02:05:45;;;;;;;14.93;8.50;;;6.90;99.90;;;;;;5011316;28;20164;-52
2023/04/18 02:08:12;;;;;;;15.73;8.18;;;6.90;99.90;;;;;;5010725;28;20037;-57
2023/04/18 02:10:38;;;;;;;15.10;8.18;;;6.90;99.90;;;;;;5011849;28;20370;-53
2023/04/18 02:13:03;;;;;;;15.13;8.50;;;6.90;99.90;;;;;;5011863;28;20030;-56
2023/04/18 02:15:29;;;;;;;13.88;8.10;;;6.80;99.90;;;;;;5010143;28;20033;-60
2023/04/18 02:17:55;;;;;;;14.88;8.25;;;6.80;99.90;;;;;;5011860;28;20046;-52
2023/04/18 02:20:20;;;;;;;13.18;7.88;;;6.80;99.90;;;;;;5013251;28;20033;-56
2023/04/18 02:22:47;;;;;;;17.50;7.93;;;6.70;99.90;;;;;;5011453;28;20041;-61
2023/04/18 02:25:12;;;;;;;14.32;8.73;;;6.80;99.90;;;;;;5009879;28;20049;-56
2023/04/18 02:27:38;;;;;;;14.50;8.18;;;6.70;99.90;;;;;;5011486;28;20037;-57
2023/04/18 02:30:05;;;;;;;14.80;8.20;;;6.70;99.90;;;;;;5011193;28;20042;-54
2023/04/18 02:32:31;;;;;;;15.40;8.82;;;6.70;99.90;;;;;;5011107;28;20041;-56
2023/04/18 02:34:56;;;;;;;13.38;7.82;;;6.70;99.90;;;;;;5011241;28;20499;-60
2023/04/18 02:37:22;;;;;;;16.38;8.40;;;6.70;99.90;;;;;;5011394;28;20049;-56
2023/04/18 02:39:48;;;;;;;16.73;8.00;;;6.80;99.90;;;;;;5011064;28;20052;-58
2023/04/18 02:42:13;;;;;;;14.73;8.75;;;6.70;99.90;;;;;;5010975;28;20034;-56
2023/04/18 02:44:39;;;;;;;15.50;8.77;;;6.60;99.90;;;;;;5011426;28;20358;-54
2023/04/18 02:47:05;;;;;;;13.93;7.53;;;6.60;99.90;;;;;;5011067;28;20552;-55
2023/04/18 02:49:31;;;;;;;15.23;8.50;;;6.60;99.90;;;;;;5010454;28;20481;-55
2023/04/18 02:51:57;;;;;;;13.77;8.00;;;6.50;99.90;;;;;;5010000;28;20043;-56
2023/04/18 02:54:23;;;;;;;16.48;8.90;;;6.50;99.90;;;;;;5010543;28;20031;-52
2023/04/18 02:56:52;;;;;;;15.98;8.15;;;6.50;99.90;;;;;;5010665;28;20145;-54
2023/04/18 02:59:18;;;;;;;14.43;7.70;;;6.50;99.90;;;;;;5009602;28;20041;-55
2023/04/18 03:01:44;;;;;;;18.05;8.57;;;6.50;99.90;;;;;;5008990;28;20053;-58
2023/04/18 03:04:10;;;;;;;13.27;8.10;;;6.50;99.90;;;;;;5008690;28;20042;-54
2023/04/18 03:06:35;;;;;;;15.02;8.43;;;6.50;99.90;;;;;;5009845;28;20064;-60
2023/04/18 03:09:02;;;;;;;17.75;8.40;;;6.50;99.90;;;;;;5008930;28;20895;-56
2023/04/18 03:11:28;;;;;;;18.90;9.55;;;6.40;99.90;;;;;;5009364;28;20037;-59
2023/04/18 03:13:54;;;;;;;18.77;8.75;;;6.50;99.90;;;;;;5009171;28;20490;-51
2023/04/18 03:16:20;;;;;;;16.08;8.65;;;6.40;99.90;;;;;;4992304;28;20119;-49
2023/04/18 03:18:46;;;;;;;14.25;7.90;;;6.40;99.90;;;;;;5008843;28;20048;-53
2023/04/18 03:21:11;;;;;;;15.77;8.43;;;6.40;99.90;;;;;;5010027;28;20551;-55
2023/04/18 03:23:37;;;;;;;13.85;10.82;;;6.40;99.90;;;;;;5009877;28;20049;-54
2023/04/18 03:26:05;;;;;;;14.35;7.78;;;6.40;99.90;;;;;;5009602;28;20073;-58
2023/04/18 03:28:31;;;;;;;14.68;8.20;;;6.40;99.90;;;;;;5008036;28;20146;-57
2023/04/18 03:30:56;;;;;;;15.32;8.20;;;6.40;99.90;;;;;;5011071;28;20144;-56
2023/04/18 03:33:22;;;;;;;15.65;8.68;;;6.40;99.90;;;;;;5010568;28;20587;-60
2023/04/18 03:35:48;;;;;;;15.02;8.90;;;6.40;99.90;;;;;;5009657;28;20042;-56
2023/04/18 03:38:14;;;;;;;14.80;8.63;;;6.40;99.90;;;;;;5008549;28;20400;-53
2023/04/18 03:40:41;;;;;;;17.77;9.75;;;6.40;99.90;;;;;;5010287;28;20050;-57
2023/04/18 03:43:07;;;;;;;15.32;8.68;;;6.40;99.90;;;;;;5009593;28;20104;-56
2023/04/18 03:45:33;;;;;;;17.95;9.55;;;6.40;99.90;;;;;;5010754;28;20045;-61
2023/04/18 03:47:58;;;;;;;16.90;9.05;;;6.40;99.90;;;;;;4990640;28;20093;-58
2023/04/18 03:50:24;;;;;;;16.98;9.43;;;6.40;99.90;;;;;;5009531;28;20045;-56
2023/04/18 03:52:51;;;;;;;15.52;8.32;;;6.40;99.90;;;;;;4974517;28;20042;-58
2023/04/18 03:55:18;;;;;;;14.15;8.13;;;6.40;99.90;;;;;;5009102;28;20112;-56
2023/04/18 03:57:44;;;;;;;15.65;7.78;;;6.40;99.90;;;;;;5010605;28;20381;-60
2023/04/18 04:00:11;;;;;;;16.48;8.75;;;6.60;99.90;;;;;;5010777;28;20046;-57
2023/04/18 04:02:37;;;;;;;16.35;8.68;;;6.30;99.90;;;;;;4990617;28;20481;-56
2023/04/18 04:05:03;;;;;;;16.25;8.60;;;6.30;99.90;;;;;;5009028;28;20430;-57
2023/04/18 04:07:32;;;;;;;13.60;8.00;;;6.30;99.90;;;;;;5007910;28;20444;-52
2023/04/18 04:09:58;;;;;;;14.25;8.13;;;6.30;99.90;;;;;;5009752;28;20048;-53
2023/04/18 04:12:24;;;;;;;16.63;10.07;;;6.50;99.90;;;;;;5007537;28;20042;-58
2023/04/18 04:14:50;;;;;;;19.90;9.40;;;6.30;99.90;;;;;;5009498;28;20436;-58
2023/04/18 04:17:16;;;;;;;16.50;8.93;;;6.30;99.90;;;;;;5007936;28;20069;-53
2023/04/18 04:19:42;;;;;;;17.17;8.82;;;6.30;99.90;;;;;;5008378;28;20081;-53
2023/04/18 04:22:07;;;;;;;20.83;8.85;;;6.30;99.90;;;;;;5010251;28;20088;-54
2023/04/18 04:24:34;;;;;;;15.75;8.60;;;6.20;99.90;;;;;;5010367;28;20405;-53
2023/04/18 04:27:00;;;;;;;16.67;9.00;;;6.20;99.90;;;;;;5010542;28;20037;-56
2023/04/18 04:29:27;;;;;;;14.68;8.65;;;6.30;99.90;;;;;;5012382;28;20061;-58
2023/04/18 04:31:54;;;;;;;17.77;8.50;;;6.30;99.90;;;;;;5010628;28;20057;-49
2023/04/18 04:34:20;;;;;;;20.67;8.90;;;6.70;99.90;;;;;;5012184;28;20072;-51
2023/04/18 04:36:46;;;;;;;17.52;9.15;;;6.30;99.90;;;;;;5010990;28;20045;-55
2023/04/18 04:39:18;;;;;;;18.95;9.02;;;6.30;99.90;;;;;;5012621;28;20045;-55
2023/04/18 04:41:45;;;;;;;14.52;8.60;;;6.30;99.90;;;;;;5012172;28;20056;-55
2023/04/18 04:44:12;;;;;;;16.80;8.77;;;6.40;99.90;;;;;;5012118;28;20048;-58
2023/04/18 04:46:39;;;;;;;15.52;8.90;;;6.70;99.90;;;;;;5010495;28;20030;-56
2023/04/18 04:49:05;;;;;;;14.30;8.27;;;6.50;99.90;;;;;;5011619;28;20049;-50
2023/04/18 04:51:31;;;;;;;17.50;8.13;;;6.40;99.90;;;;;;5012113;28;20152;-59
2023/04/18 04:53:57;;;;;;;15.50;7.85;;;6.40;99.90;;;;;;5012269;28;20034;-58
2023/04/18 04:56:23;;;;;;;14.38;7.53;;;6.50;99.90;;;;;;5013298;28;20136;-55
2023/04/18 04:58:49;;;;;;;14.75;8.23;;;6.50;99.90;;;;;;5013772;28;20093;-55
2023/04/18 05:01:15;;;;;;;14.40;8.25;;;6.50;99.90;;;;;;5012879;28;20044;-58
2023/04/18 05:03:41;;;;;;;15.30;8.73;;;6.50;99.90;;;;;;5021677;28;20473;-56
2023/04/18 05:06:07;;;;;;;14.68;8.23;;;6.50;99.90;;;;;;5012827;28;20038;-54
2023/04/18 05:08:33;;;;;;;14.48;8.45;;;6.50;99.90;;;;;;5012710;28;20029;-56
2023/04/18 05:11:00;;;;;;;16.65;8.00;;;6.50;99.90;;;;;;5011624;28;20113;-56
2023/04/18 05:13:26;;;;;;;13.32;7.30;;;6.60;99.90;;;;;;5012601;28;20030;-55
2023/04/18 05:15:52;;;;;;;15.10;8.15;;;6.60;99.90;;;;;;5012695;28;20103;-57
2023/04/18 05:18:17;;;;;;;14.20;8.25;;;6.60;99.90;;;;;;5012683;28;20041;-53
2023/04/18 05:20:43;;;;;;;18.20;9.00;;;6.70;99.90;;;;;;5012878;28;20096;-52
2023/04/18 05:23:09;;;;;;;14.40;8.20;;;6.70;99.90;;;;;;5011328;28;20102;-59
2023/04/18 05:25:35;;;;;;;14.57;8.68;;;6.70;99.90;;;;;;5010861;28;20034;-55
2023/04/18 05:28:03;;;;;;;15.32;8.10;;;6.80;99.90;;;;;;5012420;28;20501;-60
2023/04/18 05:30:29;;;;;;;15.93;8.30;;;6.80;99.90;;;;;;5012156;28;20104;-58
2023/04/18 05:32:55;;;;;;;16.80;9.05;;;7.10;99.90;;;;;;5012174;28;20038;-54
2023/04/18 05:35:20;;;;;;;17.17;9.52;;;6.90;99.90;;;;;;5012002;28;20034;-60
2023/04/18 05:37:46;;;;;;;19.30;9.57;;;6.90;99.90;;;;;;5012012;28;20045;-60
2023/04/18 05:40:12;;;;;;;15.05;8.65;;;6.90;99.90;;;;;;5012369;28;20042;-62
2023/04/18 05:42:38;;;;;;;16.25;9.40;;;6.90;99.90;;;;;;5012168;28;20046;-51
2023/04/18 05:45:04;;;;;;;20.67;10.55;;;7.00;99.90;;;;;;5012343;28;20034;-54
2023/04/18 05:47:32;;;;;;;16.42;9.73;;;7.00;99.90;;;;;;5011450;28;20094;-59
2023/04/18 05:49:58;;;;;;;17.88;9.00;;;7.00;99.90;;;;;;5011918;28;20056;-56
2023/04/18 05:52:24;;;;;;;16.48;10.27;;;7.00;99.90;;;;;;5011636;28;20038;-54
2023/04/18 05:54:51;;;;;;;17.10;9.75;;;7.00;99.90;;;;;;5012214;28;20393;-59
2023/04/18 05:57:16;;;;;;;17.80;10.10;;;7.10;99.90;;;;;;5010396;28;20042;-55
2023/04/18 05:59:42;;;;;;;16.08;8.85;;;7.00;99.90;;;;;;5010866;28;20351;-55
2023/04/18 06:02:12;;;;;;;17.67;9.98;;;7.10;99.90;;;;;;4993147;28;20076;-54
2023/04/18 06:04:39;;;;;;;17.90;10.00;;;7.00;99.90;;;;;;5010789;28;20034;-59
2023/04/18 06:07:05;;;;;;;17.35;9.57;;;7.00;99.90;;;;;;5010715;28;20048;-57
2023/04/18 06:09:31;;;;;;;15.25;9.15;;;7.10;99.90;;;;;;5011518;28;20496;-52
2023/04/18 06:11:57;;;;;;;19.08;9.95;;;7.10;99.90;;;;;;5009871;28;20130;-54
2023/04/18 06:14:22;;;;;;;15.80;9.18;;;7.10;99.90;;;;;;5010813;28;20040;-55
2023/04/18 06:16:49;;;;;;;16.73;9.23;;;7.10;99.90;;;;;;5009644;28;20042;-53
2023/04/18 06:19:14;;;;;;;16.38;9.45;;;7.40;99.90;;;;;;5011441;28;20042;-56
2023/04/18 06:21:41;;;;;;;17.58;9.35;;;7.20;99.90;;;;;;5009538;28;20100;-54
2023/04/18 06:24:07;;;;;;;18.85;9.52;;;7.10;99.90;;;;;;5010488;28;20077;-57
2023/04/18 06:26:33;;;;;;;16.98;9.23;;;7.20;99.90;;;;;;5009307;28;20041;-51
2023/04/18 06:28:59;;;;;;;18.67;9.18;;;7.20;99.90;;;;;;5010157;28;20034;-55
2023/04/18 06:31:25;;;;;;;15.20;9.35;;;7.20;99.90;;;;;;5011265;28;20044;-53
2023/04/18 06:33:51;;;;;;;16.08;9.27;;;7.30;99.90;;;;;;5012038;28;20046;-52
2023/04/18 06:36:17;;;;;;;17.60;13.85;;;7.30;99.90;;;;;;5010581;28;20034;-54
2023/04/18 06:38:43;;;;;;;18.40;9.32;;;7.30;99.90;;;;;;5006535;28;20045;-58
2023/04/18 06:41:08;;;;;;;19.42;9.32;;;7.50;99.90;;;;;;5008053;28;20049;-50
2023/04/18 06:43:35;;;;;;;17.77;9.23;;;7.30;99.90;;;;;;5000997;28;20038;-56
2023/04/18 06:46:04;;;;;;;16.10;9.25;;;7.40;99.90;;;;;;5008267;28;20512;-55
2023/04/18 06:48:30;;;;;;;17.23;9.85;;;7.40;99.90;;;;;;4952912;28;20129;-58
2023/04/18 06:50:56;;;;;;;17.48;9.80;;;7.50;99.90;;;;;;4976605;28;20178;-58
2023/04/18 06:53:21;;;;;;;12.90;8.27;;;7.60;99.90;;;;;;4976546;28;20395;-55
2023/04/18 06:55:47;;;;;;;16.17;9.32;;;7.60;99.90;;;;;;4981919;28;20316;-52
2023/04/18 06:58:15;;;;;;;15.68;9.23;;;7.70;99.90;;;;;;4997190;28;20054;-52
2023/04/18 07:00:41;;;;;;;17.77;9.48;;;7.80;99.90;;;;;;4999969;28;20050;-54
2023/04/18 07:03:11;;;;;;;17.05;9.52;;;7.90;99.90;;;;;;5000766;28;20072;-56
2023/04/18 07:05:40;;;;;;;15.93;9.73;;;8.00;99.90;;;;;;5001812;28;20042;-57
2023/04/18 07:08:06;;;;;;;13.30;8.68;;;8.10;99.90;;;;;;5001409;28;20565;-55
2023/04/18 07:10:32;;;;;;;14.57;8.90;;;8.10;99.90;;;;;;4999639;28;20478;-61
2023/04/18 07:12:58;;;;;;;16.33;9.15;;;8.20;99.90;;;;;;4999209;28;20046;-55
2023/04/18 07:15:23;;;;;;;15.93;9.50;;;8.30;99.90;;;;;;4999991;28;20038;-56
2023/04/18 07:17:49;;;;;;;13.63;8.68;;;8.60;99.90;;;;;;5000256;28;20046;-57
2023/04/18 07:20:15;;;;;;;15.23;9.40;;;8.50;99.90;;;;;;4997414;28;20141;-57
2023/04/18 07:22:41;;;;;;;15.18;8.68;;;8.50;99.90;;;;;;4982429;28;20045;-56
2023/04/18 07:25:07;;;;;;;13.90;8.85;;;8.60;99.90;;;;;;5000004;28;20121;-56
2023/04/18 07:27:34;;;;;;;18.02;8.95;;;8.60;99.90;;;;;;4998726;28;20501;-55
2023/04/18 07:30:00;;;;;;;15.50;8.73;;;8.70;99.90;;;;;;5000301;28;20072;-56
2023/04/18 07:32:26;;;;;;;14.38;9.10;;;8.80;99.90;;;;;;4998769;28;20030;-57
2023/04/18 07:34:52;;;;;;;16.52;9.00;;;8.80;99.90;;;;;;5000611;28;20466;-52
2023/04/18 07:37:20;;;;;;;15.25;9.80;;;8.90;99.90;;;;;;4999338;28;20402;-56
2023/04/18 07:39:46;;;;;;;16.05;9.15;;;8.90;99.90;;;;;;5001074;28;20034;-55
2023/04/18 07:42:12;;;;;;;14.85;9.15;;;8.80;99.90;;;;;;5000617;28;20749;-58
2023/04/18 07:44:38;;;;;;;17.83;9.15;;;8.80;99.90;;;;;;4998998;28;20038;-59
2023/04/18 07:47:10;;;;;;;15.70;11.93;;;8.90;99.90;;;;;;4999734;28;20022;-58
2023/04/18 07:49:36;;;;;;;18.95;9.38;;;8.90;99.90;;;;;;4999508;28;20053;-56
2023/04/18 07:52:02;;;;;;;15.75;9.35;;;8.90;99.90;;;;;;4998117;28;20066;-55
2023/04/18 07:54:28;;;;;;;15.27;7.63;;;9.00;99.90;;;;;;5000281;28;20033;-58
2023/04/18 07:56:53;;;;;;;12.48;8.07;;;9.00;99.90;;;;;;4995302;28;20129;-60
2023/04/18 07:59:19;;;;;;;12.90;7.80;;;9.00;99.90;;;;;;4995960;28;20482;-55
2023/04/18 08:01:45;;;;;;;12.52;8.38;;;9.00;99.90;;;;;;4996065;28;20504;-58
2023/04/18 08:04:11;;;;;;;15.00;8.10;;;9.00;99.90;;;;;;5002438;28;20034;-60
2023/04/18 08:06:37;;;;;;;11.85;7.10;;;9.10;99.90;;;;;;5003221;28;20052;-54
2023/04/18 08:09:04;;;;;;;13.25;8.35;;;9.20;99.90;;;;;;5002965;28;20042;-59
2023/04/18 08:11:31;;;;;;;12.68;8.18;;;9.30;99.90;;;;;;5002591;28;20125;-58
2023/04/18 08:13:56;;;;;;;13.40;7.70;;;9.40;99.90;;;;;;5004628;28;20569;-59
2023/04/18 08:16:22;;;;;;;13.57;7.30;;;9.50;99.90;;;;;;5001139;28;20038;-57
2023/04/18 08:18:48;;;;;;;12.68;7.78;;;9.60;99.90;;;;;;5002967;28;20042;-58
2023/04/18 08:21:13;;;;;;;13.93;8.10;;;9.60;99.90;;;;;;5003647;28;20046;-56
2023/04/18 08:23:39;;;;;;;11.68;7.82;;;9.60;99.90;;;;;;5004833;28;20388;-59
2023/04/18 08:26:05;;;;;;;14.05;9.98;;;9.70;99.90;;;;;;5004868;28;20041;-57
2023/04/18 08:28:30;;;;;;;12.27;7.60;;;9.70;99.90;;;;;;5004133;28;20030;-56
2023/04/18 08:30:56;;;;;;;12.70;8.05;;;9.70;99.90;;;;;;5003172;28;20128;-54
2023/04/18 08:33:23;;;;;;;14.55;7.63;;;9.80;99.90;;;;;;4983997;28;20107;-61
2023/04/18 08:35:49;;;;;;;13.50;7.45;;;9.90;99.90;;;;;;5003866;28;20402;-55
2023/04/18 08:38:16;;;;;;;13.85;7.28;;;10.00;99.90;;;;;;5001280;28;20040;-54
2023/04/18 08:40:42;;;;;;;11.55;7.95;;;10.10;99.90;;;;;;5002427;28;21679;-59
2023/04/18 08:43:11;;;;;;;14.43;7.80;;;10.20;99.90;;;;;;5003807;28;20679;-54
2023/04/18 08:45:38;;;;;;;13.55;7.03;;;10.30;99.90;;;;;;5003816;28;20478;-56
2023/04/18 08:48:05;;;;;;;12.18;7.82;;;10.40;99.90;;;;;;5003086;28;20046;-58
2023/04/18 08:50:31;;;;;;;12.70;7.22;;;10.50;99.90;;;;;;5001347;28;20040;-59
2023/04/18 08:52:58;;;;;;;11.95;7.50;;;10.40;99.90;;;;;;5001107;28;20089;-55
2023/04/18 08:55:24;;;;;;;10.95;7.50;;;10.40;99.90;;;;;;5002120;28;20034;-56
2023/04/18 08:57:52;;;;;;;13.43;8.13;;;10.40;99.90;;;;;;5002327;28;20052;-56
2023/04/18 09:00:18;;;;;;;11.27;7.35;;;10.40;99.90;;;;;;5002618;28;20053;-54
2023/04/18 09:02:45;;;;;;;11.57;7.85;;;10.40;99.90;;;;;;5002402;28;20046;-60
2023/04/18 09:05:18;;;;;;;14.00;7.65;;;10.40;99.90;;;;;;5001509;28;20034;-60
2023/04/18 09:07:45;;;;;;;11.95;8.35;;;10.40;99.90;;;;;;5003890;28;20049;-58
2023/04/18 09:10:12;;;;;;;11.63;7.70;;;10.50;99.90;;;;;;5001779;28;20041;-54
2023/04/18 09:12:48;;;;;;;12.90;8.00;;;10.50;99.90;;;;;;5001311;28;20046;-48
2023/04/18 09:15:16;;;;;;;11.18;8.00;;;10.60;99.90;;;;;;5000886;28;20486;-57
2023/04/18 09:17:52;;;;;;;11.80;8.07;;;10.70;99.90;;;;;;5002738;28;20061;-55
2023/04/18 09:20:46;;;;;;;12.85;7.22;;;10.70;99.90;;;;;;5001305;28;21423;-55
2023/04/18 09:23:22;;;;;;;18.85;8.43;;;10.60;99.90;;;;;;4998692;28;20527;-50
2023/04/18 09:25:50;;;;;;;11.18;7.85;;;10.50;99.90;;;;;;5001657;28;20038;-51
2023/04/18 09:28:31;;;;;;;12.35;8.30;;;10.50;99.90;;;;;;5001107;28;20050;-51
2023/04/18 09:31:10;;;;;;;14.15;8.10;;;10.50;99.90;;;;;;5001850;28;20564;-59
2023/04/18 09:33:37;;;;;;;11.90;8.02;;;10.60;99.90;;;;;;5001259;28;20708;-57
2023/04/18 09:36:22;;;;;;;13.43;8.68;;;10.80;99.90;;;;;;5000648;28;20030;-57
2023/04/18 09:38:50;;;;;;;10.63;7.38;;;10.90;99.90;;;;;;5001855;28;20140;-58
2023/04/18 09:41:17;;;;;;;13.57;8.27;;;10.80;99.90;;;;;;5001331;28;20119;-59
2023/04/18 09:43:45;;;;;;;12.63;7.63;;;10.70;99.90;;;;;;5002397;28;20062;-57
2023/04/18 09:46:11;;;;;;;14.85;8.77;;;10.60;99.90;;;;;;5001687;28;20046;-59
2023/04/18 09:48:38;;;;;;;12.25;8.32;;;10.60;99.90;;;;;;5001685;28;20041;-55
2023/04/18 09:51:09;;;;;;;13.38;8.73;;;10.60;99.90;;;;;;5004781;28;20055;-59
2023/04/18 09:53:39;;;;;;;12.65;8.35;;;10.60;99.90;;;;;;5007414;28;20068;-51
2023/04/18 09:56:11;;;;;;;13.02;8.45;;;10.70;99.90;;;;;;5006414;28;20598;-57
2023/04/18 09:58:40;;;;;;;14.32;9.18;;;10.90;99.90;;;;;;5006947;28;20056;-55
2023/04/18 10:01:06;;;;;;;13.98;8.63;;;11.00;99.90;;;;;;5001210;28;20057;-57
2023/04/18 10:03:37;;;;;;;15.15;9.63;;;11.10;99.90;;;;;;4997018;28;20049;-57
2023/04/18 10:06:04;;;;;;;13.02;8.60;;;11.10;99.90;;;;;;5005938;28;20041;-56
2023/04/18 10:08:31;;;;;;;13.07;8.88;;;11.10;99.90;;;;;;4987155;28;20138;-57
2023/04/18 10:10:57;;;;;;;13.13;9.55;;;11.10;99.90;;;;;;5006102;28;20038;-52
2023/04/18 10:13:25;;;;;;;15.23;9.77;;;11.30;99.90;;;;;;5011451;28;20037;-56
2023/04/18 10:15:51;;;;;;;13.55;9.52;;;11.50;99.90;;;;;;5004700;28;20499;-54
2023/04/18 10:18:22;;;;;;;14.02;9.38;;;11.90;99.90;;;;;;5006903;28;20088;-61
2023/04/18 10:20:48;;;;;;;16.25;10.25;;;12.10;99.90;;;;;;5004414;28;20053;-55
2023/04/18 10:23:36;;;;;;;14.52;9.98;;;12.40;99.90;;;;;;5010224;28;20037;-56
2023/04/18 10:26:11;;;;;;;15.48;9.40;;;12.60;99.90;;;;;;5003178;28;20088;-53
2023/04/18 10:28:55;;;;;;;12.80;8.82;;;12.70;99.90;;;;;;5001869;28;20037;-57
2023/04/18 10:31:23;;;;;;;15.75;9.52;;;12.70;99.90;;;;;;4997834;28;20051;-53
2023/04/18 10:33:56;;;;;;;15.32;10.73;;;12.70;99.90;;;;;;4980069;28;20056;-52
2023/04/18 10:36:22;;;;;;;14.50;10.75;;;12.80;99.90;;;;;;5006076;28;20042;-52
2023/04/18 10:38:51;;;;;;;13.63;9.73;;;12.80;99.90;;;;;;5007008;28;20434;-57
2023/04/18 10:41:29;;;;;;;16.27;11.43;;;12.90;99.90;;;;;;4999510;28;20088;-55
2023/04/18 10:44:33;;;;;;;16.33;11.02;;;13.10;99.90;;;;;;5007710;28;20050;-59
2023/04/18 10:47:00;;;;;;;14.50;10.05;;;13.10;99.90;;;;;;5003160;28;20056;-55
2023/04/18 10:49:30;;;;;;;14.98;11.25;;;13.20;99.90;;;;;;5002638;28;20073;-53
2023/04/18 10:52:00;;;;;;;15.32;10.63;;;13.20;99.90;;;;;;5008124;28;20428;-58
2023/04/18 10:54:31;;;;;;;13.55;11.07;;;13.10;99.90;;;;;;5005580;28;20033;-58
2023/04/18 10:57:00;;;;;;;14.52;11.18;;;13.00;99.90;;;;;;5008142;28;20408;-58
2023/04/18 10:59:29;;;;;;;14.93;10.52;;;13.00;99.90;;;;;;5006272;28;20129;-54
2023/04/18 11:02:03;;;;;;;13.00;10.88;;;13.20;99.90;;;;;;5005583;28;20516;-54
2023/04/18 11:04:30;;;;;;;13.32;10.55;;;13.50;99.90;;;;;;5006310;28;20104;-59
2023/04/18 11:06:57;;;;;;;14.25;10.75;;;13.80;99.90;;;;;;5008787;28;20049;-56
2023/04/18 11:09:23;;;;;;;13.85;10.65;;;14.00;99.90;;;;;;4987915;28;20463;-58
2023/04/18 11:12:06;;;;;;;12.30;9.93;;;14.30;99.90;;;;;;5002142;28;20054;-62
2023/04/18 11:14:50;;;;;;;14.43;9.88;;;14.60;99.90;;;;;;4995066;28;20138;-59
2023/04/18 11:17:16;;;;;;;11.98;8.85;;;14.80;99.90;;;;;;5003356;28;20060;-53
2023/04/18 11:19:42;;;;;;;12.82;9.02;;;14.90;99.90;;;;;;5003828;28;20050;-57
2023/04/18 11:22:08;;;;;;;13.07;9.25;;;14.90;99.90;;;;;;5002815;28;20100;-59
2023/04/18 11:24:34;;;;;;;12.80;8.48;;;14.90;99.90;;;;;;5005583;28;20045;-61
2023/04/18 11:27:02;;;;;;;12.35;8.05;;;14.90;99.90;;;;;;5002481;28;20117;-59
2023/04/18 11:29:28;;;;;;;10.00;8.25;;;15.00;99.90;;;;;;5004951;28;20458;-61
2023/04/18 11:31:53;;;;;;;10.65;8.60;;;15.20;99.90;;;;;;5002747;28;20133;-52
2023/04/18 11:34:19;;;;;;;11.52;8.48;;;15.20;99.90;;;;;;5005716;28;20038;-52
2023/04/18 11:36:51;;;;;;;11.10;8.02;;;15.20;99.90;;;;;;5006321;28;20037;-56
2023/04/18 11:39:18;;;;;;;11.63;8.52;;;15.20;99.90;;;;;;4996441;28;20096;-54
2023/04/18 11:41:49;;;;;;;11.43;8.35;;;15.40;99.90;;;;;;5006647;28;20506;-56
2023/04/18 11:44:22;;;;;;;10.10;8.40;;;15.60;99.90;;;;;;5007863;28;20505;-51
2023/04/18 11:46:49;;;;;;;10.23;8.25;;;15.70;99.90;;;;;;5005991;28;20070;-55
2023/04/18 11:49:47;;;;;;;10.25;7.88;;;15.80;99.90;;;;;;5010184;28;20377;-56
2023/04/18 11:52:12;;;;;;;14.88;8.73;;;16.00;99.90;;;;;;4954787;28;20065;-48
2023/04/18 11:54:43;;;;;;;12.48;9.27;;;16.00;99.90;;;;;;4992418;28;20075;-57
2023/04/18 11:57:28;;;;;;;11.02;7.65;;;15.90;99.90;;;;;;5018223;28;20049;-56
2023/04/18 11:59:59;;;;;;;12.80;8.70;;;15.90;99.90;;;;;;5010090;28;20038;-49
2023/04/18 12:02:46;;;;;;;12.48;9.45;;;15.80;99.90;;;;;;5012601;28;20046;-55
2023/04/18 12:05:23;;;;;;;11.45;8.93;;;15.80;99.90;;;;;;5013654;28;20037;-54
2023/04/18 12:07:48;;;;;;;74.60;15.65;;;15.70;99.90;;;;;;5013485;28;20078;-53
2023/04/18 12:10:25;;;;;;;69.07;16.08;;;15.60;99.90;;;;;;5013517;28;20115;-58
2023/04/18 12:12:52;;;;;;;142.45;24.33;;;15.60;99.90;;;;;;5011904;28;20038;-55
2023/04/18 12:15:20;;;;;;;45.55;12.32;;;15.70;99.90;;;;;;5013667;28;20404;-56
2023/04/18 12:17:47;;;;;;;47.83;12.85;;;15.70;99.90;;;;;;5012857;28;20081;-54
2023/04/18 12:20:14;;;;;;;32.95;11.30;;;15.80;99.90;;;;;;5011829;28;20034;-54
2023/04/18 12:22:48;;;;;;;20.45;9.57;;;15.90;99.90;;;;;;5011636;28;20385;-58
2023/04/18 12:25:20;;;;;;;10.80;8.27;;;16.00;99.90;;;;;;5008821;28;20037;-51
2023/04/18 12:27:59;;;;;;;24.35;9.13;;;16.10;99.90;;;;;;5010342;28;20486;-57
2023/04/18 12:30:27;;;;;;;16.15;7.85;;;16.10;99.90;;;;;;5008233;28;20119;-56
2023/04/18 12:33:03;;;;;;;16.52;8.77;;;16.10;99.90;;;;;;5012695;28;20038;-54
2023/04/18 12:35:30;;;;;;;45.95;10.48;;;16.00;99.90;;;;;;5011280;28;20053;-54
2023/04/18 12:37:58;;;;;;;16.85;8.57;;;15.90;99.90;;;;;;5013425;28;20046;-53
2023/04/18 12:40:25;;;;;;;16.63;8.90;;;15.70;99.90;;;;;;5013840;28;20052;-54
2023/04/18 12:42:51;;;;;;;27.40;10.10;;;15.60;99.90;;;;;;5009278;28;20505;-56
2023/04/18 12:45:18;;;;;;;22.52;9.50;;;15.40;99.90;;;;;;5011540;28;20042;-52